sensor_id;sensor_type;location;lat;lon;timestamp;temperature;humidity
47540;DHT22;33280;52.152;21.052;2023-04-07T00:02:20;4.50;99.90
47540;DHT22;33280;52.152;21.052;2023-04-07T00:04:48;4.50;99.90
47540;DHT22;33280;52.152;21.052;2023-04-07T00:07:14;4.60;99.90
47540;DHT22;33280;52.152;21.052;2023-04-07T00:09:41;4.50;99.90
47540;DHT22;33280;52.152;21.052;2023-04-07T00:12:08;4.60;99.90
47540;DHT22;33280;52.152;21.052;2023-04-07T00:14:36;4.60;99.90
47540;DHT22;33280;52.152;21.052;2023-04-07T00:17:02;4.70;99.90
47540;DHT22;33280;52.152;21.052;2023-04-07T00:19:29;4.70;99.90
47540;DHT22;33280;52.152;21.052;2023-04-07T00:21:57;4.70;99.90
47540;DHT22;33280;52.152;21.052;2023-04-07T00:24:23;4.70;99.90
47540;DHT22;33280;52.152;21.052;2023-04-07T00:27:00;4.80;99.90
47540;DHT22;33280;52.152;21.052;2023-04-07T00:29:27;4.80;99.90
47540;DHT22;33280;52.152;21.052;2023-04-07T00:31:55;4.90;99.90
47540;DHT22;33280;52.152;21.052;2023-04-07T00:34:22;4.90;99.90
47540;DHT22;33280;52.152;21.052;2023-04-07T00:36:49;4.90;99.90
47540;DHT22;33280;52.152;21.052;2023-04-07T00:39:19;4.90;99.90
47540;DHT22;33280;52.152;21.052;2023-04-07T00:41:46;4.90;99.90
47540;DHT22;33280;52.152;21.052;2023-04-07T00:44:13;4.90;99.90
47540;DHT22;33280;52.152;21.052;2023-04-07T00:46:40;4.90;99.90
47540;DHT22;33280;52.152;21.052;2023-04-07T00:49:07;4.90;99.90
47540;DHT22;33280;52.152;21.052;2023-04-07T00:51:37;5.00;99.90
47540;DHT22;33280;52.152;21.052;2023-04-07T00:54:04;5.00;99.90
47540;DHT22;33280;52.152;21.052;2023-04-07T00:56:31;5.00;99.90
47540;DHT22;33280;52.152;21.052;2023-04-07T00:58:58;5.00;99.90
47540;DHT22;33280;52.152;21.052;2023-04-07T01:04:13;5.00;99.90
47540;DHT22;33280;52.152;21.052;2023-04-07T01:06:48;5.00;99.90
47540;DHT22;33280;52.152;21.052;2023-04-07T01:09:20;5.00;99.90
47540;DHT22;33280;52.152;21.052;2023-04-07T01:14:57;5.00;99.90
47540;DHT22;33280;52.152;21.052;2023-04-07T01:17:27;5.00;99.90
47540;DHT22;33280;52.152;21.052;2023-04-07T01:22:28;5.10;99.90
47540;DHT22;33280;52.152;21.052;2023-04-07T01:30:31;5.20;99.90
47540;DHT22;33280;52.152;21.052;2023-04-07T01:33:00;5.20;99.90
47540;DHT22;33280;52.152;21.052;2023-04-07T01:35:30;5.20;99.90
47540;DHT22;33280;52.152;21.052;2023-04-07T01:37:58;5.20;99.90
47540;DHT22;33280;52.152;21.052;2023-04-07T01:40:27;5.20;99.90
47540;DHT22;33280;52.152;21.052;2023-04-07T01:42:56;5.30;99.90
47540;DHT22;33280;52.152;21.052;2023-04-07T01:45:23;5.30;99.90
47540;DHT22;33280;52.152;21.052;2023-04-07T01:47:53;5.30;99.90
47540;DHT22;33280;52.152;21.052;2023-04-07T01:50:21;5.30;99.90
47540;DHT22;33280;52.152;21.052;2023-04-07T01:52:49;5.30;99.90
47540;DHT22;33280;52.152;21.052;2023-04-07T01:55:16;5.40;99.90
47540;DHT22;33280;52.152;21.052;2023-04-07T01:57:43;5.40;99.90
47540;DHT22;33280;52.152;21.052;2023-04-07T02:00:10;5.30;99.90
47540;DHT22;33280;52.152;21.052;2023-04-07T02:02:41;5.30;99.90
47540;DHT22;33280;52.152;21.052;2023-04-07T02:05:13;5.30;99.90
47540;DHT22;33280;52.152;21.052;2023-04-07T02:07:46;5.40;99.90
47540;DHT22;33280;52.152;21.052;2023-04-07T02:10:16;5.40;99.90
47540;DHT22;33280;52.152;21.052;2023-04-07T02:12:46;5.40;99.90
47540;DHT22;33280;52.152;21.052;2023-04-07T02:15:14;5.40;99.90
47540;DHT22;33280;52.152;21.052;2023-04-07T02:17:45;5.40;99.90
47540;DHT22;33280;52.152;21.052;2023-04-07T02:20:14;5.50;99.90
47540;DHT22;33280;52.152;21.052;2023-04-07T02:22:42;5.50;99.90
47540;DHT22;33280;52.152;21.052;2023-04-07T02:25:28;5.50;99.90
47540;DHT22;33280;52.152;21.052;2023-04-07T02:27:57;5.50;99.90
47540;DHT22;33280;52.152;21.052;2023-04-07T02:30:24;5.60;99.90
47540;DHT22;33280;52.152;21.052;2023-04-07T02:32:52;5.60;99.90
47540;DHT22;33280;52.152;21.052;2023-04-07T02:35:19;5.60;99.90
47540;DHT22;33280;52.152;21.052;2023-04-07T02:37:47;5.50;99.90
47540;DHT22;33280;52.152;21.052;2023-04-07T02:40:14;5.60;99.90
47540;DHT22;33280;52.152;21.052;2023-04-07T02:42:41;5.60;99.90
47540;DHT22;33280;52.152;21.052;2023-04-07T02:45:09;5.70;99.90
47540;DHT22;33280;52.152;21.052;2023-04-07T02:47:37;5.70;99.90
47540;DHT22;33280;52.152;21.052;2023-04-07T02:50:04;5.60;99.90
47540;DHT22;33280;52.152;21.052;2023-04-07T02:52:31;5.60;99.90
47540;DHT22;33280;52.152;21.052;2023-04-07T02:54:58;5.70;99.90
47540;DHT22;33280;52.152;21.052;2023-04-07T02:57:25;5.70;99.90
47540;DHT22;33280;52.152;21.052;2023-04-07T02:59:52;5.70;99.90
47540;DHT22;33280;52.152;21.052;2023-04-07T03:02:20;5.70;99.90
47540;DHT22;33280;52.152;21.052;2023-04-07T03:04:48;5.80;99.90
47540;DHT22;33280;52.152;21.052;2023-04-07T03:07:15;5.80;99.90
47540;DHT22;33280;52.152;21.052;2023-04-07T03:09:42;5.70;99.90
47540;DHT22;33280;52.152;21.052;2023-04-07T03:12:10;5.80;99.90
47540;DHT22;33280;52.152;21.052;2023-04-07T03:14:37;5.80;99.90
47540;DHT22;33280;52.152;21.052;2023-04-07T03:17:04;5.80;99.90
47540;DHT22;33280;52.152;21.052;2023-04-07T03:19:31;5.90;99.90
47540;DHT22;33280;52.152;21.052;2023-04-07T03:21:58;5.90;99.90
47540;DHT22;33280;52.152;21.052;2023-04-07T03:24:25;5.90;99.90
47540;DHT22;33280;52.152;21.052;2023-04-07T03:26:52;5.90;99.90
47540;DHT22;33280;52.152;21.052;2023-04-07T03:29:19;5.90;99.90
47540;DHT22;33280;52.152;21.052;2023-04-07T03:31:46;5.90;99.90
47540;DHT22;33280;52.152;21.052;2023-04-07T03:34:13;5.90;99.90
47540;DHT22;33280;52.152;21.052;2023-04-07T03:36:40;5.90;99.90
47540;DHT22;33280;52.152;21.052;2023-04-07T03:39:07;5.90;99.90
47540;DHT22;33280;52.152;21.052;2023-04-07T03:41:33;5.90;99.90
47540;DHT22;33280;52.152;21.052;2023-04-07T03:44:00;6.00;99.90
47540;DHT22;33280;52.152;21.052;2023-04-07T03:46:27;6.00;99.90
47540;DHT22;33280;52.152;21.052;2023-04-07T03:48:54;5.90;99.90
47540;DHT22;33280;52.152;21.052;2023-04-07T03:51:21;5.90;99.90
47540;DHT22;33280;52.152;21.052;2023-04-07T03:53:48;5.90;99.90
47540;DHT22;33280;52.152;21.052;2023-04-07T03:56:15;5.90;99.90
47540;DHT22;33280;52.152;21.052;2023-04-07T03:58:42;6.00;99.90
47540;DHT22;33280;52.152;21.052;2023-04-07T04:01:10;6.00;99.90
47540;DHT22;33280;52.152;21.052;2023-04-07T04:03:36;6.00;99.90
47540;DHT22;33280;52.152;21.052;2023-04-07T04:06:04;6.00;99.90
47540;DHT22;33280;52.152;21.052;2023-04-07T04:08:31;6.00;99.90
47540;DHT22;33280;52.152;21.052;2023-04-07T04:10:58;6.00;99.90
47540;DHT22;33280;52.152;21.052;2023-04-07T04:13:25;6.00;99.90
47540;DHT22;33280;52.152;21.052;2023-04-07T04:15:54;6.00;99.90
47540;DHT22;33280;52.152;21.052;2023-04-07T04:18:21;6.00;99.90
47540;DHT22;33280;52.152;21.052;2023-04-07T04:20:47;6.10;99.90
47540;DHT22;33280;52.152;21.052;2023-04-07T04:23:14;6.10;99.90
47540;DHT22;33280;52.152;21.052;2023-04-07T04:25:41;6.10;99.90
47540;DHT22;33280;52.152;21.052;2023-04-07T04:28:08;6.10;99.90
47540;DHT22;33280;52.152;21.052;2023-04-07T04:30:35;6.10;99.90
47540;DHT22;33280;52.152;21.052;2023-04-07T04:33:02;6.10;99.90
47540;DHT22;33280;52.152;21.052;2023-04-07T04:35:29;6.10;99.90
47540;DHT22;33280;52.152;21.052;2023-04-07T04:37:56;6.10;99.90
47540;DHT22;33280;52.152;21.052;2023-04-07T04:40:23;6.10;99.90
47540;DHT22;33280;52.152;21.052;2023-04-07T04:42:49;6.20;99.90
47540;DHT22;33280;52.152;21.052;2023-04-07T04:45:17;6.10;99.90
47540;DHT22;33280;52.152;21.052;2023-04-07T04:47:43;6.20;99.90
47540;DHT22;33280;52.152;21.052;2023-04-07T04:50:11;6.10;99.90
47540;DHT22;33280;52.152;21.052;2023-04-07T04:52:38;6.20;99.90
47540;DHT22;33280;52.152;21.052;2023-04-07T04:55:06;6.20;99.90
47540;DHT22;33280;52.152;21.052;2023-04-07T04:57:33;6.20;99.90
47540;DHT22;33280;52.152;21.052;2023-04-07T05:00:02;6.10;99.90
47540;DHT22;33280;52.152;21.052;2023-04-07T05:02:30;6.20;99.90
47540;DHT22;33280;52.152;21.052;2023-04-07T05:04:57;6.20;99.90
47540;DHT22;33280;52.152;21.052;2023-04-07T05:07:24;6.20;99.90
47540;DHT22;33280;52.152;21.052;2023-04-07T05:09:51;6.20;99.90
47540;DHT22;33280;52.152;21.052;2023-04-07T05:12:18;6.20;99.90
47540;DHT22;33280;52.152;21.052;2023-04-07T05:14:45;6.30;99.90
47540;DHT22;33280;52.152;21.052;2023-04-07T05:17:11;6.30;99.90
47540;DHT22;33280;52.152;21.052;2023-04-07T05:19:38;6.40;99.90
47540;DHT22;33280;52.152;21.052;2023-04-07T05:22:05;6.40;99.90
47540;DHT22;33280;52.152;21.052;2023-04-07T05:24:32;6.40;99.90
47540;DHT22;33280;52.152;21.052;2023-04-07T05:26:59;6.40;99.90
47540;DHT22;33280;52.152;21.052;2023-04-07T05:29:27;6.50;99.90
47540;DHT22;33280;52.152;21.052;2023-04-07T05:31:54;6.60;99.90
47540;DHT22;33280;52.152;21.052;2023-04-07T05:34:21;6.50;99.90
47540;DHT22;33280;52.152;21.052;2023-04-07T05:36:48;6.50;99.90
47540;DHT22;33280;52.152;21.052;2023-04-07T05:39:15;6.50;99.90
47540;DHT22;33280;52.152;21.052;2023-04-07T05:41:42;6.50;99.90
47540;DHT22;33280;52.152;21.052;2023-04-07T05:44:08;6.50;99.90
47540;DHT22;33280;52.152;21.052;2023-04-07T05:46:35;6.50;99.90
47540;DHT22;33280;52.152;21.052;2023-04-07T05:49:03;6.60;99.90
47540;DHT22;33280;52.152;21.052;2023-04-07T05:51:45;6.60;99.90
47540;DHT22;33280;52.152;21.052;2023-04-07T05:54:14;6.60;99.90
47540;DHT22;33280;52.152;21.052;2023-04-07T05:56:41;6.60;99.90
47540;DHT22;33280;52.152;21.052;2023-04-07T05:59:08;6.60;99.90
47540;DHT22;33280;52.152;21.052;2023-04-07T06:01:35;6.60;99.90
47540;DHT22;33280;52.152;21.052;2023-04-07T06:04:02;6.70;99.90
47540;DHT22;33280;52.152;21.052;2023-04-07T06:06:29;6.70;99.90
47540;DHT22;33280;52.152;21.052;2023-04-07T06:08:57;6.70;99.90
47540;DHT22;33280;52.152;21.052;2023-04-07T06:11:25;6.70;99.90
47540;DHT22;33280;52.152;21.052;2023-04-07T06:13:52;6.80;99.90
47540;DHT22;33280;52.152;21.052;2023-04-07T06:16:18;6.80;99.90
47540;DHT22;33280;52.152;21.052;2023-04-07T06:18:46;6.80;99.90
47540;DHT22;33280;52.152;21.052;2023-04-07T06:21:13;6.90;99.90
47540;DHT22;33280;52.152;21.052;2023-04-07T06:23:39;6.90;99.90
47540;DHT22;33280;52.152;21.052;2023-04-07T06:26:10;6.90;99.90
47540;DHT22;33280;52.152;21.052;2023-04-07T06:28:40;6.90;99.90
47540;DHT22;33280;52.152;21.052;2023-04-07T06:31:07;7.00;99.90
47540;DHT22;33280;52.152;21.052;2023-04-07T06:33:34;6.90;99.90
47540;DHT22;33280;52.152;21.052;2023-04-07T06:36:01;6.90;99.90
47540;DHT22;33280;52.152;21.052;2023-04-07T06:38:28;6.90;99.90
47540;DHT22;33280;52.152;21.052;2023-04-07T06:40:55;6.90;99.90
47540;DHT22;33280;52.152;21.052;2023-04-07T06:43:23;6.90;99.90
47540;DHT22;33280;52.152;21.052;2023-04-07T06:45:53;6.90;99.90
47540;DHT22;33280;52.152;21.052;2023-04-07T06:48:20;6.80;99.90
47540;DHT22;33280;52.152;21.052;2023-04-07T06:50:50;7.00;99.90
47540;DHT22;33280;52.152;21.052;2023-04-07T06:53:17;7.00;99.90
47540;DHT22;33280;52.152;21.052;2023-04-07T06:55:44;7.20;99.90
47540;DHT22;33280;52.152;21.052;2023-04-07T06:58:11;7.10;99.90
47540;DHT22;33280;52.152;21.052;2023-04-07T07:00:38;7.20;99.90
47540;DHT22;33280;52.152;21.052;2023-04-07T07:03:05;7.30;99.90
47540;DHT22;33280;52.152;21.052;2023-04-07T07:05:34;7.40;99.90
47540;DHT22;33280;52.152;21.052;2023-04-07T07:08:01;7.40;99.90
47540;DHT22;33280;52.152;21.052;2023-04-07T07:10:27;7.60;99.90
47540;DHT22;33280;52.152;21.052;2023-04-07T07:12:54;7.60;99.90
47540;DHT22;33280;52.152;21.052;2023-04-07T07:15:21;7.60;99.90
47540;DHT22;33280;52.152;21.052;2023-04-07T07:17:48;7.60;99.90
47540;DHT22;33280;52.152;21.052;2023-04-07T07:20:15;7.60;99.90
47540;DHT22;33280;52.152;21.052;2023-04-07T07:22:42;7.70;99.90
47540;DHT22;33280;52.152;21.052;2023-04-07T07:25:13;7.70;99.90
47540;DHT22;33280;52.152;21.052;2023-04-07T07:27:40;7.60;99.90
47540;DHT22;33280;52.152;21.052;2023-04-07T07:30:07;7.60;99.90
47540;DHT22;33280;52.152;21.052;2023-04-07T07:32:35;7.60;99.90
47540;DHT22;33280;52.152;21.052;2023-04-07T07:35:03;7.70;99.90
47540;DHT22;33280;52.152;21.052;2023-04-07T07:37:30;7.70;99.90
47540;DHT22;33280;52.152;21.052;2023-04-07T07:39:57;7.80;99.90
47540;DHT22;33280;52.152;21.052;2023-04-07T07:42:24;7.80;99.90
47540;DHT22;33280;52.152;21.052;2023-04-07T07:44:51;7.80;99.90
47540;DHT22;33280;52.152;21.052;2023-04-07T07:47:17;7.90;99.90
47540;DHT22;33280;52.152;21.052;2023-04-07T07:49:44;8.00;99.90
47540;DHT22;33280;52.152;21.052;2023-04-07T07:52:11;8.10;99.90
47540;DHT22;33280;52.152;21.052;2023-04-07T07:54:38;8.30;99.90
47540;DHT22;33280;52.152;21.052;2023-04-07T07:57:05;8.40;99.90
47540;DHT22;33280;52.152;21.052;2023-04-07T07:59:32;8.50;99.90
47540;DHT22;33280;52.152;21.052;2023-04-07T08:01:59;8.60;99.90
47540;DHT22;33280;52.152;21.052;2023-04-07T08:04:26;8.70;99.90
47540;DHT22;33280;52.152;21.052;2023-04-07T08:06:54;8.70;99.90
47540;DHT22;33280;52.152;21.052;2023-04-07T08:09:21;8.80;99.90
47540;DHT22;33280;52.152;21.052;2023-04-07T08:11:48;8.90;99.90
47540;DHT22;33280;52.152;21.052;2023-04-07T08:14:16;8.90;99.90
47540;DHT22;33280;52.152;21.052;2023-04-07T08:16:43;8.90;99.90
47540;DHT22;33280;52.152;21.052;2023-04-07T08:19:14;8.90;99.90
47540;DHT22;33280;52.152;21.052;2023-04-07T08:21:41;9.00;99.90
47540;DHT22;33280;52.152;21.052;2023-04-07T08:24:10;9.10;99.90
47540;DHT22;33280;52.152;21.052;2023-04-07T08:26:37;9.10;99.90
47540;DHT22;33280;52.152;21.052;2023-04-07T08:29:04;9.30;99.90
47540;DHT22;33280;52.152;21.052;2023-04-07T08:31:32;9.30;99.90
47540;DHT22;33280;52.152;21.052;2023-04-07T08:33:59;9.40;99.90
47540;DHT22;33280;52.152;21.052;2023-04-07T08:36:27;9.30;99.90
47540;DHT22;33280;52.152;21.052;2023-04-07T08:38:55;9.40;99.90
47540;DHT22;33280;52.152;21.052;2023-04-07T08:41:36;9.40;99.90
47540;DHT22;33280;52.152;21.052;2023-04-07T08:44:06;9.40;99.90
47540;DHT22;33280;52.152;21.052;2023-04-07T08:46:33;9.40;99.90
47540;DHT22;33280;52.152;21.052;2023-04-07T08:49:01;9.50;99.90
47540;DHT22;33280;52.152;21.052;2023-04-07T08:51:30;9.60;99.90
47540;DHT22;33280;52.152;21.052;2023-04-07T08:54:18;9.60;99.90
47540;DHT22;33280;52.152;21.052;2023-04-07T08:56:47;9.70;99.90
47540;DHT22;33280;52.152;21.052;2023-04-07T08:59:15;9.80;99.90
47540;DHT22;33280;52.152;21.052;2023-04-07T09:01:45;9.80;99.90
47540;DHT22;33280;52.152;21.052;2023-04-07T09:04:16;9.80;99.90
47540;DHT22;33280;52.152;21.052;2023-04-07T09:06:44;9.80;99.90
47540;DHT22;33280;52.152;21.052;2023-04-07T09:09:11;9.90;99.90
47540;DHT22;33280;52.152;21.052;2023-04-07T09:11:40;9.90;99.90
47540;DHT22;33280;52.152;21.052;2023-04-07T09:14:08;9.90;99.90
47540;DHT22;33280;52.152;21.052;2023-04-07T09:16:35;9.90;99.90
47540;DHT22;33280;52.152;21.052;2023-04-07T09:19:03;9.90;99.90
47540;DHT22;33280;52.152;21.052;2023-04-07T09:22:05;9.90;99.90
47540;DHT22;33280;52.152;21.052;2023-04-07T09:24:34;9.90;99.90
47540;DHT22;33280;52.152;21.052;2023-04-07T09:27:14;9.80;99.90
47540;DHT22;33280;52.152;21.052;2023-04-07T09:29:45;9.80;99.90
47540;DHT22;33280;52.152;21.052;2023-04-07T09:32:20;9.60;99.90
47540;DHT22;33280;52.152;21.052;2023-04-07T09:34:59;9.60;99.90
47540;DHT22;33280;52.152;21.052;2023-04-07T09:37:26;9.60;99.90
47540;DHT22;33280;52.152;21.052;2023-04-07T09:39:53;9.70;99.90
47540;DHT22;33280;52.152;21.052;2023-04-07T09:42:20;9.70;99.90
47540;DHT22;33280;52.152;21.052;2023-04-07T09:44:48;9.70;99.90
47540;DHT22;33280;52.152;21.052;2023-04-07T09:47:14;9.70;99.90
47540;DHT22;33280;52.152;21.052;2023-04-07T09:49:52;9.70;99.90
47540;DHT22;33280;52.152;21.052;2023-04-07T09:52:24;9.70;99.90
47540;DHT22;33280;52.152;21.052;2023-04-07T09:54:53;9.90;99.90
47540;DHT22;33280;52.152;21.052;2023-04-07T09:57:21;10.00;99.90
47540;DHT22;33280;52.152;21.052;2023-04-07T09:59:51;10.00;99.90
47540;DHT22;33280;52.152;21.052;2023-04-07T10:02:20;10.10;99.90
47540;DHT22;33280;52.152;21.052;2023-04-07T10:04:50;10.10;99.90
47540;DHT22;33280;52.152;21.052;2023-04-07T10:07:17;10.20;99.90
47540;DHT22;33280;52.152;21.052;2023-04-07T10:09:45;10.20;99.90
47540;DHT22;33280;52.152;21.052;2023-04-07T10:12:12;10.20;99.90
47540;DHT22;33280;52.152;21.052;2023-04-07T10:14:43;10.30;99.90
47540;DHT22;33280;52.152;21.052;2023-04-07T10:17:15;10.40;99.90
47540;DHT22;33280;52.152;21.052;2023-04-07T10:19:46;10.50;99.90
47540;DHT22;33280;52.152;21.052;2023-04-07T10:22:14;10.60;99.90
47540;DHT22;33280;52.152;21.052;2023-04-07T10:27:12;10.70;99.90
47540;DHT22;33280;52.152;21.052;2023-04-07T10:29:42;10.80;99.90
47540;DHT22;33280;52.152;21.052;2023-04-07T10:32:09;10.90;99.90
47540;DHT22;33280;52.152;21.052;2023-04-07T10:37:17;10.80;99.90
47540;DHT22;33280;52.152;21.052;2023-04-07T10:39:48;10.80;99.90
47540;DHT22;33280;52.152;21.052;2023-04-07T10:45:08;10.90;99.90
47540;DHT22;33280;52.152;21.052;2023-04-07T10:50:25;11.00;99.90
47540;DHT22;33280;52.152;21.052;2023-04-07T10:55:36;11.10;99.90
47540;DHT22;33280;52.152;21.052;2023-04-07T10:58:26;11.10;99.90
47540;DHT22;33280;52.152;21.052;2023-04-07T11:03:29;11.20;99.90
47540;DHT22;33280;52.152;21.052;2023-04-07T11:06:04;11.20;99.90
47540;DHT22;33280;52.152;21.052;2023-04-07T11:08:39;11.30;99.90
47540;DHT22;33280;52.152;21.052;2023-04-07T11:11:09;11.30;99.90
47540;DHT22;33280;52.152;21.052;2023-04-07T11:13:47;11.30;99.90
47540;DHT22;33280;52.152;21.052;2023-04-07T11:16:17;11.40;99.90
47540;DHT22;33280;52.152;21.052;2023-04-07T11:18:46;11.30;99.90
47540;DHT22;33280;52.152;21.052;2023-04-07T11:21:17;11.30;99.90
47540;DHT22;33280;52.152;21.052;2023-04-07T11:23:46;11.40;99.90
47540;DHT22;33280;52.152;21.052;2023-04-07T11:26:14;11.30;99.90
47540;DHT22;33280;52.152;21.052;2023-04-07T11:28:49;11.30;99.90
47540;DHT22;33280;52.152;21.052;2023-04-07T11:31:27;11.20;99.90
47540;DHT22;33280;52.152;21.052;2023-04-07T11:33:59;11.30;99.90
47540;DHT22;33280;52.152;21.052;2023-04-07T11:36:31;11.20;99.90
47540;DHT22;33280;52.152;21.052;2023-04-07T11:39:01;11.20;99.90
47540;DHT22;33280;52.152;21.052;2023-04-07T11:41:30;11.20;99.90
47540;DHT22;33280;52.152;21.052;2023-04-07T11:44:10;11.20;99.90
47540;DHT22;33280;52.152;21.052;2023-04-07T11:46:57;11.30;99.90
47540;DHT22;33280;52.152;21.052;2023-04-07T11:49:31;11.20;99.90
47540;DHT22;33280;52.152;21.052;2023-04-07T11:52:05;11.20;99.90
47540;DHT22;33280;52.152;21.052;2023-04-07T11:54:42;11.10;99.90
47540;DHT22;33280;52.152;21.052;2023-04-07T11:57:10;11.10;99.90
47540;DHT22;33280;52.152;21.052;2023-04-07T11:59:39;11.10;99.90
47540;DHT22;33280;52.152;21.052;2023-04-07T12:02:07;11.10;99.90
47540;DHT22;33280;52.152;21.052;2023-04-07T12:04:34;11.10;99.90
47540;DHT22;33280;52.152;21.052;2023-04-07T12:07:08;11.10;99.90
47540;DHT22;33280;52.152;21.052;2023-04-07T12:09:35;11.20;99.90
47540;DHT22;33280;52.152;21.052;2023-04-07T12:12:04;11.30;99.90
47540;DHT22;33280;52.152;21.052;2023-04-07T12:14:33;11.30;99.90
47540;DHT22;33280;52.152;21.052;2023-04-07T12:17:00;11.40;99.90
47540;DHT22;33280;52.152;21.052;2023-04-07T12:19:31;11.50;99.90
47540;DHT22;33280;52.152;21.052;2023-04-07T12:22:02;11.70;99.90
47540;DHT22;33280;52.152;21.052;2023-04-07T12:24:29;11.60;99.90
47540;DHT22;33280;52.152;21.052;2023-04-07T12:26:58;11.70;99.90
47540;DHT22;33280;52.152;21.052;2023-04-07T12:29:25;11.70;99.90
47540;DHT22;33280;52.152;21.052;2023-04-07T12:31:52;11.70;99.90
47540;DHT22;33280;52.152;21.052;2023-04-07T12:34:20;11.70;99.90
47540;DHT22;33280;52.152;21.052;2023-04-07T12:36:47;11.80;99.90
47540;DHT22;33280;52.152;21.052;2023-04-07T12:39:14;12.00;99.90
47540;DHT22;33280;52.152;21.052;2023-04-07T12:41:42;12.20;99.90
47540;DHT22;33280;52.152;21.052;2023-04-07T12:44:11;12.30;99.90
47540;DHT22;33280;52.152;21.052;2023-04-07T12:46:38;12.40;99.90
47540;DHT22;33280;52.152;21.052;2023-04-07T12:49:05;12.40;99.90
47540;DHT22;33280;52.152;21.052;2023-04-07T12:51:32;12.30;99.90
47540;DHT22;33280;52.152;21.052;2023-04-07T12:53:59;12.30;99.90
47540;DHT22;33280;52.152;21.052;2023-04-07T12:56:26;12.40;99.90
47540;DHT22;33280;52.152;21.052;2023-04-07T12:59:02;12.60;99.90
47540;DHT22;33280;52.152;21.052;2023-04-07T13:01:36;12.80;99.90
47540;DHT22;33280;52.152;21.052;2023-04-07T13:04:03;12.90;99.90
47540;DHT22;33280;52.152;21.052;2023-04-07T13:06:31;12.90;99.90
47540;DHT22;33280;52.152;21.052;2023-04-07T13:08:59;13.00;99.90
47540;DHT22;33280;52.152;21.052;2023-04-07T13:11:26;12.90;99.90
47540;DHT22;33280;52.152;21.052;2023-04-07T13:13:53;12.80;99.90
47540;DHT22;33280;52.152;21.052;2023-04-07T13:16:22;12.70;99.90
47540;DHT22;33280;52.152;21.052;2023-04-07T13:18:50;12.40;99.90
47540;DHT22;33280;52.152;21.052;2023-04-07T13:21:17;12.30;99.90
47540;DHT22;33280;52.152;21.052;2023-04-07T13:24:04;12.20;99.90
47540;DHT22;33280;52.152;21.052;2023-04-07T13:26:43;12.10;99.90
47540;DHT22;33280;52.152;21.052;2023-04-07T13:29:10;12.20;99.90
47540;DHT22;33280;52.152;21.052;2023-04-07T13:31:37;12.00;99.90
47540;DHT22;33280;52.152;21.052;2023-04-07T13:34:04;12.10;99.90
47540;DHT22;33280;52.152;21.052;2023-04-07T13:36:31;12.30;99.90
47540;DHT22;33280;52.152;21.052;2023-04-07T13:38:59;12.40;99.90
47540;DHT22;33280;52.152;21.052;2023-04-07T13:41:27;12.40;99.90
47540;DHT22;33280;52.152;21.052;2023-04-07T13:43:54;12.50;99.90
47540;DHT22;33280;52.152;21.052;2023-04-07T13:46:22;12.50;99.90
47540;DHT22;33280;52.152;21.052;2023-04-07T13:48:53;12.50;99.90
47540;DHT22;33280;52.152;21.052;2023-04-07T13:51:21;12.50;99.90
47540;DHT22;33280;52.152;21.052;2023-04-07T13:53:48;12.70;99.90
47540;DHT22;33280;52.152;21.052;2023-04-07T13:56:15;12.60;99.90
47540;DHT22;33280;52.152;21.052;2023-04-07T13:58:42;12.60;99.90
47540;DHT22;33280;52.152;21.052;2023-04-07T14:01:10;12.70;99.90
47540;DHT22;33280;52.152;21.052;2023-04-07T14:03:41;12.70;99.90
47540;DHT22;33280;52.152;21.052;2023-04-07T14:06:09;12.60;99.90
47540;DHT22;33280;52.152;21.052;2023-04-07T14:08:36;12.60;99.90
47540;DHT22;33280;52.152;21.052;2023-04-07T14:11:03;12.40;99.90
47540;DHT22;33280;52.152;21.052;2023-04-07T14:13:30;12.40;99.90
47540;DHT22;33280;52.152;21.052;2023-04-07T14:15:57;12.20;99.90
47540;DHT22;33280;52.152;21.052;2023-04-07T14:18:24;11.90;99.90
47540;DHT22;33280;52.152;21.052;2023-04-07T14:20:53;11.70;99.90
47540;DHT22;33280;52.152;21.052;2023-04-07T14:23:20;11.30;99.90
47540;DHT22;33280;52.152;21.052;2023-04-07T14:26:03;11.00;99.90
47540;DHT22;33280;52.152;21.052;2023-04-07T14:28:30;10.90;99.90
47540;DHT22;33280;52.152;21.052;2023-04-07T14:30:57;10.70;99.90
47540;DHT22;33280;52.152;21.052;2023-04-07T14:33:27;10.50;99.90
47540;DHT22;33280;52.152;21.052;2023-04-07T14:35:55;10.50;99.90
47540;DHT22;33280;52.152;21.052;2023-04-07T14:38:23;10.50;99.90
47540;DHT22;33280;52.152;21.052;2023-04-07T14:40:51;10.40;99.90
47540;DHT22;33280;52.152;21.052;2023-04-07T14:43:19;10.40;99.90
47540;DHT22;33280;52.152;21.052;2023-04-07T14:45:46;10.40;99.90
47540;DHT22;33280;52.152;21.052;2023-04-07T14:48:16;10.40;99.90
47540;DHT22;33280;52.152;21.052;2023-04-07T14:50:44;10.40;99.90
47540;DHT22;33280;52.152;21.052;2023-04-07T14:53:12;10.30;99.90
47540;DHT22;33280;52.152;21.052;2023-04-07T14:55:44;10.40;99.90
47540;DHT22;33280;52.152;21.052;2023-04-07T14:58:11;10.50;99.90
47540;DHT22;33280;52.152;21.052;2023-04-07T15:00:38;10.50;99.90
47540;DHT22;33280;52.152;21.052;2023-04-07T15:03:05;10.60;99.90
47540;DHT22;33280;52.152;21.052;2023-04-07T15:05:32;10.70;99.90
47540;DHT22;33280;52.152;21.052;2023-04-07T15:07:59;10.70;99.90
47540;DHT22;33280;52.152;21.052;2023-04-07T15:10:26;10.80;99.90
47540;DHT22;33280;52.152;21.052;2023-04-07T15:12:53;10.90;99.90
47540;DHT22;33280;52.152;21.052;2023-04-07T15:15:20;10.90;99.90
47540;DHT22;33280;52.152;21.052;2023-04-07T15:17:47;11.10;99.90
47540;DHT22;33280;52.152;21.052;2023-04-07T15:20:14;11.20;99.90
47540;DHT22;33280;52.152;21.052;2023-04-07T15:22:40;11.30;99.90
47540;DHT22;33280;52.152;21.052;2023-04-07T15:25:07;11.40;99.90
47540;DHT22;33280;52.152;21.052;2023-04-07T15:27:34;11.50;99.90
47540;DHT22;33280;52.152;21.052;2023-04-07T15:30:02;11.40;99.90
47540;DHT22;33280;52.152;21.052;2023-04-07T15:32:36;11.40;99.90
47540;DHT22;33280;52.152;21.052;2023-04-07T15:35:03;11.40;99.90
47540;DHT22;33280;52.152;21.052;2023-04-07T15:37:30;11.30;99.90
47540;DHT22;33280;52.152;21.052;2023-04-07T15:39:57;11.30;99.90
47540;DHT22;33280;52.152;21.052;2023-04-07T15:42:23;11.20;99.90
47540;DHT22;33280;52.152;21.052;2023-04-07T15:44:50;11.00;99.90
47540;DHT22;33280;52.152;21.052;2023-04-07T15:47:17;11.00;99.90
47540;DHT22;33280;52.152;21.052;2023-04-07T15:49:45;10.90;99.90
47540;DHT22;33280;52.152;21.052;2023-04-07T15:52:18;10.80;99.90
47540;DHT22;33280;52.152;21.052;2023-04-07T15:54:45;10.80;99.90
47540;DHT22;33280;52.152;21.052;2023-04-07T15:57:12;10.70;99.90
47540;DHT22;33280;52.152;21.052;2023-04-07T15:59:43;10.70;99.90
47540;DHT22;33280;52.152;21.052;2023-04-07T16:02:09;10.60;99.90
47540;DHT22;33280;52.152;21.052;2023-04-07T16:04:40;10.60;99.90